Time;durP1;ratioP1;P1;durP2;ratioP2;P2;SDS_P1;SDS_P2;PMS_P1;PMS_P2;Temp;Humidity;BMP_temperature;BMP_pressure;BME280_temperature;BME280_humidity;BME280_pressure;Samples;Min_cycle;Max_cycle;Signal;HPM_P1;HPM_P2
2023/04/27 00:01:41;;;;;;;15.80;4.80;;;;;;;9.68;100.00;100420.85;105870;1251;67128;-50
2023/04/27 00:04:09;;;;;;;18.00;4.10;;;;;;;9.67;100.00;100414.50;105985;1251;75017;-50
2023/04/27 00:06:36;;;;;;;7.80;4.20;;;;;;;9.68;100.00;100410.52;105885;1253;61950;-50
2023/04/27 00:09:03;;;;;;;11.70;3.50;;;;;;;9.68;100.00;100411.04;105828;1257;61529;-50
2023/04/27 00:11:30;;;;;;;16.20;4.60;;;;;;;9.67;100.00;100410.36;105833;1251;75290;-50
2023/04/27 00:13:57;;;;;;;17.70;4.60;;;;;;;9.66;100.00;100409.18;105850;1256;66162;-50
2023/04/27 00:16:24;;;;;;;18.50;3.90;;;;;;;9.66;100.00;100413.31;105896;1254;73638;-51
2023/04/27 00:18:51;;;;;;;10.00;4.50;;;;;;;9.65;100.00;100415.39;105879;1253;63482;-50
2023/04/27 00:21:19;;;;;;;8.70;4.20;;;;;;;9.66;100.00;100411.77;105869;1257;62125;-51
2023/04/27 00:23:46;;;;;;;16.30;3.70;;;;;;;9.69;100.00;100413.27;105836;1253;76084;-51
2023/04/27 00:26:12;;;;;;;13.00;4.50;;;;;;;9.72;100.00;100413.90;105836;1253;67058;-50
2023/04/27 00:28:42;;;;;;;16.10;4.50;;;;;;;9.73;100.00;100413.55;105869;1251;75897;-50
2023/04/27 00:31:09;;;;;;;20.30;4.50;;;;;;;9.72;100.00;100413.23;105693;1258;63411;-51
2023/04/27 00:33:36;;;;;;;13.50;4.40;;;;;;;9.70;100.00;100412.20;105877;1257;62708;-50
2023/04/27 00:36:03;;;;;;;12.20;4.10;;;;;;;9.69;100.00;100410.34;105845;1253;76547;-50
2023/04/27 00:38:30;;;;;;;9.50;3.00;;;;;;;9.69;100.00;100405.50;105857;1257;65381;-51
2023/04/27 00:41:04;;;;;;;10.10;4.00;;;;;;;9.71;100.00;100407.03;105682;1254;74289;-51
2023/04/27 00:43:32;;;;;;;8.50;4.10;;;;;;;9.73;100.00;100411.31;105930;1253;64197;-51
2023/04/27 00:45:59;;;;;;;8.70;4.00;;;;;;;9.75;100.00;100411.29;105894;1257;60881;-50
2023/04/27 00:48:27;;;;;;;9.00;4.50;;;;;;;9.79;100.00;100412.77;105903;1252;75016;-51
2023/04/27 00:50:54;;;;;;;11.20;3.60;;;;;;;9.83;100.00;100414.27;105635;1251;65431;-50
2023/04/27 00:53:21;;;;;;;8.40;3.70;;;;;;;9.87;100.00;100411.09;105638;1257;74113;-50
2023/04/27 00:55:48;;;;;;;10.90;4.20;;;;;;;9.92;100.00;100416.00;105633;1257;62857;-50
2023/04/27 00:58:15;;;;;;;11.50;4.10;;;;;;;9.96;100.00;100415.08;105870;1254;62504;-50
2023/04/27 01:00:42;;;;;;;16.70;4.90;;;;;;;9.98;100.00;100414.70;105811;1257;76441;-50
2023/04/27 01:03:09;;;;;;;6.90;4.60;;;;;;;10.00;100.00;100408.30;105867;1251;66245;-50
2023/04/27 01:05:37;;;;;;;8.70;4.50;;;;;;;10.01;100.00;100398.79;105897;1254;75186;-51
2023/04/27 01:08:04;;;;;;;7.70;4.10;;;;;;;10.04;100.00;100398.91;105653;1252;64691;-50
2023/04/27 01:10:31;;;;;;;7.30;5.10;;;;;;;10.08;100.00;100397.81;105944;1253;62454;-51
2023/04/27 01:12:58;;;;;;;17.60;5.40;;;;;;;10.11;100.00;100390.86;105791;1253;75648;-50
2023/04/27 01:15:26;;;;;;;7.60;4.70;;;;;;;10.14;100.00;100388.92;105856;1253;66358;-50
2023/04/27 01:18:00;;;;;;;28.90;6.10;;;;;;;10.16;100.00;100384.91;105864;1257;75187;-50
2023/04/27 01:20:29;;;;;;;10.30;5.00;;;;;;;10.18;100.00;100377.80;105916;1259;63442;-50
2023/04/27 01:22:57;;;;;;;9.60;4.40;;;;;;;10.20;100.00;100383.81;105884;1256;61716;-51
2023/04/27 01:25:24;;;;;;;15.80;5.40;;;;;;;10.21;100.00;100385.52;105865;1253;75984;-51
2023/04/27 01:27:52;;;;;;;14.80;6.20;;;;;;;10.22;100.00;100383.23;105706;1254;66533;-51
2023/04/27 01:30:21;;;;;;;12.00;5.80;;;;;;;10.23;100.00;100386.88;105873;1254;75017;-51
2023/04/27 01:32:48;;;;;;;9.40;5.10;;;;;;;10.25;100.00;100390.11;105908;1251;62916;-50
2023/04/27 01:35:18;;;;;;;12.60;5.40;;;;;;;10.27;100.00;100393.88;105723;1257;61835;-51
2023/04/27 01:37:45;;;;;;;12.30;5.80;;;;;;;10.27;100.00;100400.58;105885;1251;75764;-51
2023/04/27 01:40:12;;;;;;;16.40;5.20;;;;;;;10.29;100.00;100399.86;105856;1257;67886;-51
2023/04/27 01:42:39;;;;;;;12.90;5.10;;;;;;;10.31;100.00;100407.08;105870;1257;74915;-51
2023/04/27 01:45:08;;;;;;;13.90;5.10;;;;;;;10.30;100.00;100403.11;105939;1254;63060;-51
2023/04/27 01:47:36;;;;;;;13.20;4.60;;;;;;;10.29;100.00;100398.31;105850;1257;63036;-51
2023/04/27 01:50:05;;;;;;;11.50;5.20;;;;;;;10.25;100.00;100398.73;105915;1256;76405;-49
2023/04/27 01:52:32;;;;;;;10.80;5.30;;;;;;;10.20;100.00;100400.52;105926;1251;67145;-51
2023/04/27 01:55:01;;;;;;;12.00;5.50;;;;;;;10.18;100.00;100401.08;105918;1251;75194;-50
2023/04/27 01:57:28;;;;;;;9.60;4.80;;;;;;;10.15;100.00;100393.89;105689;1253;64753;-56
2023/04/27 01:59:55;;;;;;;13.50;4.80;;;;;;;10.14;100.00;100392.02;105649;1257;61762;-54
2023/04/27 02:02:22;;;;;;;15.30;5.00;;;;;;;10.12;100.00;100392.75;105526;1256;75275;-51
2023/04/27 02:04:50;;;;;;;10.50;5.50;;;;;;;10.10;100.00;100388.30;105727;1253;65917;-52
2023/04/27 02:07:18;;;;;;;7.20;4.70;;;;;;;10.05;100.00;100390.97;105970;1253;73370;-56
2023/04/27 02:09:45;;;;;;;16.50;5.00;;;;;;;10.01;100.00;100387.93;105854;1253;63824;-51
2023/04/27 02:12:13;;;;;;;8.30;4.60;;;;;;;9.99;100.00;100390.05;105869;1251;62246;-51
2023/04/27 02:14:40;;;;;;;15.20;4.70;;;;;;;9.96;100.00;100389.23;105684;1257;76437;-51
2023/04/27 02:17:07;;;;;;;12.80;4.50;;;;;;;9.93;100.00;100382.20;105840;1256;66464;-51
2023/04/27 02:19:35;;;;;;;13.00;5.00;;;;;;;9.92;100.00;100378.77;105867;1252;75229;-51
2023/04/27 02:22:02;;;;;;;10.20;4.80;;;;;;;9.90;100.00;100376.39;105884;1253;63414;-51
2023/04/27 02:24:30;;;;;;;12.80;5.90;;;;;;;9.89;100.00;100372.61;105917;1251;62098;-51
2023/04/27 02:26:59;;;;;;;10.30;5.60;;;;;;;9.88;100.00;100371.42;105859;1257;75560;-52
2023/04/27 02:29:30;;;;;;;15.00;5.90;;;;;;;9.87;100.00;100373.00;105656;1256;66777;-54
2023/04/27 02:31:57;;;;;;;14.70;5.20;;;;;;;9.86;100.00;100371.48;105878;1257;74095;-55
2023/04/27 02:34:25;;;;;;;9.00;4.80;;;;;;;9.85;100.00;100375.80;105829;1256;62229;-57
2023/04/27 02:36:52;;;;;;;7.70;5.10;;;;;;;9.83;100.00;100379.95;105662;1258;62121;-54
2023/04/27 02:39:19;;;;;;;11.20;5.60;;;;;;;9.80;100.00;100380.86;105769;1251;75379;-56
2023/04/27 02:41:46;;;;;;;13.50;4.90;;;;;;;9.79;100.00;100384.16;105839;1253;67411;-56
2023/04/27 02:44:14;;;;;;;7.50;5.40;;;;;;;9.78;100.00;100385.56;105838;1253;75418;-50
2023/04/27 02:46:41;;;;;;;10.80;5.40;;;;;;;9.78;100.00;100395.04;105649;1254;64489;-50
2023/04/27 02:49:08;;;;;;;11.00;5.00;;;;;;;9.80;100.00;100396.56;105878;1257;61736;-51
2023/04/27 02:51:35;;;;;;;13.70;5.70;;;;;;;9.80;100.00;100396.03;105857;1257;76298;-50
2023/04/27 02:54:03;;;;;;;9.50;4.70;;;;;;;9.82;100.00;100399.29;105686;1259;66881;-50
2023/04/27 02:56:30;;;;;;;9.50;4.90;;;;;;;9.84;100.00;100403.55;105872;1257;74063;-50
2023/04/27 02:58:57;;;;;;;11.00;5.10;;;;;;;9.87;100.00;100407.64;105677;1259;63491;-51
2023/04/27 03:01:24;;;;;;;8.60;4.80;;;;;;;9.90;100.00;100414.15;105902;1253;61298;-51
2023/04/27 03:03:52;;;;;;;8.50;5.30;;;;;;;9.94;100.00;100425.27;105651;1253;76055;-51
2023/04/27 03:06:19;;;;;;;15.60;5.60;;;;;;;9.98;100.00;100431.77;105834;1250;66460;-50
2023/04/27 03:08:46;;;;;;;8.50;4.40;;;;;;;10.03;100.00;100436.52;105668;1251;75004;-50
2023/04/27 03:11:13;;;;;;;7.80;5.50;;;;;;;10.07;100.00;100440.93;105840;1250;62237;-51
2023/04/27 03:13:40;;;;;;;10.30;5.50;;;;;;;10.12;100.00;100446.90;105916;1251;62756;-52
2023/04/27 03:16:09;;;;;;;9.90;5.70;;;;;;;10.16;100.00;100441.13;105937;1250;75666;-49
2023/04/27 03:18:38;;;;;;;14.30;5.80;;;;;;;10.20;100.00;100431.93;105905;1256;66799;-49
2023/04/27 03:21:06;;;;;;;12.00;6.00;;;;;;;10.22;100.00;100422.23;105847;1253;73959;-49
2023/04/27 03:23:33;;;;;;;14.20;6.40;;;;;;;10.22;100.00;100412.06;105917;1250;62566;-50
2023/04/27 03:26:13;;;;;;;14.90;6.70;;;;;;;10.21;100.00;100407.23;105868;1251;61833;-51
2023/04/27 03:28:41;;;;;;;12.50;6.60;;;;;;;10.20;100.00;100406.22;105892;1251;76277;-49
2023/04/27 03:31:09;;;;;;;12.50;6.50;;;;;;;10.18;100.00;100400.74;105947;1250;66136;-51
2023/04/27 03:33:37;;;;;;;10.80;6.20;;;;;;;10.18;100.00;100404.71;105866;1250;74878;-48
2023/04/27 03:36:05;;;;;;;13.60;6.50;;;;;;;10.19;100.00;100413.98;105851;1257;63232;-50
2023/04/27 03:38:32;;;;;;;14.40;6.50;;;;;;;10.21;100.00;100424.14;105906;1257;61693;-49
2023/04/27 03:40:59;;;;;;;27.10;9.70;;;;;;;10.21;100.00;100425.35;105895;1253;76667;-49
2023/04/27 03:43:27;;;;;;;30.00;14.30;;;;;;;10.18;100.00;100422.98;105897;1250;66829;-52
2023/04/27 03:45:54;;;;;;;29.30;12.80;;;;;;;10.17;100.00;100422.48;105704;1250;75135;-51
2023/04/27 03:48:21;;;;;;;23.80;10.40;;;;;;;10.16;100.00;100431.14;105646;1257;63638;-50
2023/04/27 03:50:49;;;;;;;15.50;8.20;;;;;;;10.15;100.00;100433.55;105889;1256;63133;-50
2023/04/27 03:53:16;;;;;;;17.60;8.00;;;;;;;10.15;100.00;100430.29;105725;1250;75425;-50
2023/04/27 03:55:43;;;;;;;16.60;8.40;;;;;;;10.14;100.00;100415.48;105719;1257;66944;-52
2023/04/27 03:58:11;;;;;;;14.60;9.00;;;;;;;10.12;100.00;100393.27;105831;1257;74434;-50
2023/04/27 04:00:48;;;;;;;13.30;7.30;;;;;;;10.10;100.00;100377.78;105825;1250;64484;-50
2023/04/27 04:03:15;;;;;;;17.50;8.50;;;;;;;10.07;100.00;100369.72;105702;1250;62601;-50
2023/04/27 04:05:45;;;;;;;17.60;8.70;;;;;;;10.05;100.00;100363.55;105897;1250;74917;-50
2023/04/27 04:08:13;;;;;;;16.20;8.00;;;;;;;10.05;100.00;100360.61;105925;1250;67500;-50
2023/04/27 04:10:40;;;;;;;15.60;8.20;;;;;;;10.05;100.00;100349.58;105882;1253;73600;-52
2023/04/27 04:13:09;;;;;;;17.90;9.10;;;;;;;10.04;100.00;100332.19;105893;1253;63704;-50
2023/04/27 04:15:36;;;;;;;15.80;9.50;;;;;;;10.04;100.00;100321.34;105764;1257;61765;-49
2023/04/27 04:18:04;;;;;;;15.00;9.10;;;;;;;10.03;100.00;100308.77;105714;1250;76068;-49
2023/04/27 04:20:33;;;;;;;20.00;9.00;;;;;;;10.04;100.00;100297.02;105912;1257;65236;-49
2023/04/27 04:23:01;;;;;;;18.50;9.40;;;;;;;10.03;100.00;100284.45;105929;1253;75389;-49
2023/04/27 04:25:28;;;;;;;17.00;9.70;;;;;;;10.03;100.00;100274.30;105747;1257;63731;-50
2023/04/27 04:27:56;;;;;;;21.80;9.80;;;;;;;10.03;100.00;100264.63;105718;1258;62010;-50
2023/04/27 04:30:23;;;;;;;18.40;10.30;;;;;;;10.05;100.00;100247.35;105842;1257;76506;-51
2023/04/27 04:32:51;;;;;;;22.10;10.60;;;;;;;10.04;100.00;100236.50;105877;1251;66181;-52
2023/04/27 04:35:18;;;;;;;18.30;10.00;;;;;;;10.06;100.00;100226.48;105879;1251;73997;-52
2023/04/27 04:37:46;;;;;;;16.40;9.00;;;;;;;10.08;100.00;100220.05;105943;1253;62781;-47
2023/04/27 04:40:13;;;;;;;15.30;9.00;;;;;;;10.10;100.00;100216.90;105714;1257;61739;-51
2023/04/27 04:42:40;;;;;;;11.40;8.40;;;;;;;10.12;100.00;100207.55;105852;1256;74684;-53
2023/04/27 04:45:09;;;;;;;15.90;8.50;;;;;;;10.18;100.00;100206.39;105705;1258;66141;-52
2023/04/27 04:47:36;;;;;;;19.80;9.20;;;;;;;10.25;100.00;100203.67;105938;1252;75314;-53
2023/04/27 04:50:03;;;;;;;16.80;8.60;;;;;;;10.33;100.00;100198.67;105827;1257;63276;-53
2023/04/27 04:52:30;;;;;;;12.60;8.60;;;;;;;10.42;100.00;100190.04;105754;1257;63377;-52
2023/04/27 04:54:57;;;;;;;12.10;7.10;;;;;;;10.50;100.00;100193.33;105463;1250;74229;-49
2023/04/27 04:57:25;;;;;;;20.90;8.10;;;;;;;10.61;100.00;100190.16;105829;1250;65701;-52
2023/04/27 04:59:53;;;;;;;12.90;7.10;;;;;;;10.76;100.00;100181.52;105880;1254;74350;-50
2023/04/27 05:02:20;;;;;;;13.40;7.00;;;;;;;10.92;100.00;100176.34;105683;1260;63319;-51
2023/04/27 05:04:48;;;;;;;10.30;6.30;;;;;;;11.08;100.00;100179.91;105940;1250;62578;-50
2023/04/27 05:07:16;;;;;;;11.00;7.20;;;;;;;11.24;100.00;100187.11;105851;1250;75132;-49
2023/04/27 05:09:49;;;;;;;10.90;5.70;;;;;;;11.36;100.00;100195.78;105885;1250;67788;-53
2023/04/27 05:12:16;;;;;;;12.30;6.40;;;;;;;11.40;100.00;100207.62;105884;1251;75098;-48
2023/04/27 05:14:43;;;;;;;26.60;6.40;;;;;;;11.36;100.00;100225.48;105889;1254;63122;-50
2023/04/27 05:17:11;;;;;;;13.30;7.10;;;;;;;11.31;100.00;100235.64;105995;1256;62220;-52
2023/04/27 05:19:38;;;;;;;13.10;6.90;;;;;;;11.28;100.00;100238.16;105858;1251;74902;-52
2023/04/27 05:22:05;;;;;;;15.60;6.80;;;;;;;11.20;100.00;100260.08;105886;1257;66666;-49
2023/04/27 05:24:32;;;;;;;21.20;7.40;;;;;;;11.19;100.00;100263.73;105827;1253;73878;-49
2023/04/27 05:26:59;;;;;;;11.00;7.20;;;;;;;11.18;100.00;100259.95;105826;1257;63526;-49
2023/04/27 05:29:28;;;;;;;11.10;7.00;;;;;;;11.18;100.00;100259.63;105911;1257;61941;-51
2023/04/27 05:31:55;;;;;;;16.20;7.20;;;;;;;11.19;100.00;100265.63;105958;1256;76388;-52
2023/04/27 05:34:23;;;;;;;15.10;7.50;;;;;;;11.26;100.00;100276.87;105917;1257;66137;-53
2023/04/27 05:36:50;;;;;;;16.40;8.20;;;;;;;11.38;100.00;100276.95;105861;1251;74940;-49
2023/04/27 05:39:17;;;;;;;12.50;7.60;;;;;;;11.54;100.00;100277.91;105876;1253;62916;-52
2023/04/27 05:41:44;;;;;;;14.40;7.40;;;;;;;11.71;100.00;100283.02;105916;1255;60514;-52
2023/04/27 05:44:11;;;;;;;10.40;7.90;;;;;;;11.88;100.00;100301.27;105819;1257;75998;-49
2023/04/27 05:46:38;;;;;;;13.70;8.10;;;;;;;11.97;100.00;100311.91;105865;1257;66243;-49
2023/04/27 05:49:05;;;;;;;12.60;7.40;;;;;;;12.00;100.00;100323.60;105832;1257;75476;-51
2023/04/27 05:51:32;;;;;;;15.40;7.70;;;;;;;11.95;100.00;100335.48;105887;1253;63345;-52
2023/04/27 05:54:00;;;;;;;9.90;6.90;;;;;;;11.87;100.00;100345.91;105832;1250;60599;-51
2023/04/27 05:56:27;;;;;;;19.20;8.20;;;;;;;11.78;100.00;100353.89;105851;1250;76591;-50
2023/04/27 05:58:54;;;;;;;18.70;8.50;;;;;;;11.72;100.00;100366.64;105906;1250;67042;-56
2023/04/27 06:01:22;;;;;;;22.20;9.90;;;;;;;11.68;100.00;100376.44;105823;1251;74359;-57
2023/04/27 06:03:49;;;;;;;23.70;10.70;;;;;;;11.68;100.00;100386.98;105833;1250;64457;-52
2023/04/27 06:06:16;;;;;;;24.10;12.80;;;;;;;11.67;100.00;100396.68;105901;1255;61722;-53
2023/04/27 06:08:43;;;;;;;29.60;13.10;;;;;;;11.69;100.00;100407.02;105916;1257;76192;-52
2023/04/27 06:11:10;;;;;;;25.50;12.60;;;;;;;11.70;100.00;100409.05;105858;1250;67176;-51
2023/04/27 06:13:37;;;;;;;21.20;11.60;;;;;;;11.68;100.00;100399.61;105881;1257;75155;-52
2023/04/27 06:16:05;;;;;;;23.40;11.50;;;;;;;11.67;100.00;100395.32;105840;1253;64592;-51
2023/04/27 06:18:32;;;;;;;14.50;9.70;;;;;;;11.64;100.00;100388.81;105872;1257;61896;-49
2023/04/27 06:21:02;;;;;;;21.20;10.20;;;;;;;11.59;100.00;100390.32;105879;1257;74682;-52
2023/04/27 06:23:29;;;;;;;17.90;9.30;;;;;;;11.51;100.00;100390.33;105844;1257;65384;-49
2023/04/27 06:25:57;;;;;;;11.00;7.80;;;;;;;11.44;100.00;100387.17;105843;1257;74397;-50
2023/04/27 06:28:25;;;;;;;14.80;8.30;;;;;;;11.36;100.00;100386.02;105910;1250;64163;-50
2023/04/27 06:30:52;;;;;;;13.70;8.20;;;;;;;11.29;100.00;100377.68;106084;1250;62851;-52
2023/04/27 06:33:19;;;;;;;13.80;7.40;;;;;;;11.28;100.00;100376.02;105839;1251;75963;-50
2023/04/27 06:35:46;;;;;;;19.10;7.30;;;;;;;11.25;100.00;100373.98;105845;1259;66537;-51
2023/04/27 06:38:14;;;;;;;13.90;7.70;;;;;;;11.24;100.00;100369.34;105831;1251;75140;-50
2023/04/27 06:40:41;;;;;;;11.90;7.40;;;;;;;11.26;100.00;100363.97;105892;1253;64236;-51
2023/04/27 06:43:08;;;;;;;12.40;7.50;;;;;;;11.26;100.00;100364.29;105874;1257;60439;-50
2023/04/27 06:45:35;;;;;;;14.00;7.50;;;;;;;11.30;100.00;100360.41;105843;1257;76325;-51
2023/04/27 06:48:03;;;;;;;12.50;7.80;;;;;;;11.32;100.00;100352.90;105847;1251;66686;-50
2023/04/27 06:50:30;;;;;;;11.40;6.70;;;;;;;11.34;100.00;100347.33;105888;1257;73724;-52
2023/04/27 06:52:57;;;;;;;15.60;7.60;;;;;;;11.32;100.00;100345.48;105895;1254;63491;-49
2023/04/27 06:55:24;;;;;;;17.50;7.50;;;;;;;11.31;100.00;100343.10;105832;1257;61188;-48
2023/04/27 06:57:52;;;;;;;11.90;7.70;;;;;;;11.30;100.00;100339.30;105847;1250;76288;-50
2023/04/27 07:00:19;;;;;;;11.40;7.30;;;;;;;11.33;100.00;100338.21;105845;1251;66996;-50
2023/04/27 07:02:46;;;;;;;13.40;7.50;;;;;;;11.39;100.00;100332.71;105923;1257;74730;-52
2023/04/27 07:05:13;;;;;;;11.10;7.50;;;;;;;11.43;100.00;100328.48;105836;1257;64358;-49
2023/04/27 07:07:40;;;;;;;22.80;6.80;;;;;;;11.51;100.00;100324.30;105853;1257;61533;-50
2023/04/27 07:10:08;;;;;;;8.80;6.30;;;;;;;11.61;100.00;100322.50;105928;1250;75715;-51
2023/04/27 07:12:36;;;;;;;8.70;6.00;;;;;;;11.72;100.00;100316.35;105914;1250;67248;-52
2023/04/27 07:15:05;;;;;;;11.70;6.50;;;;;;;11.86;100.00;100314.11;105922;1253;74318;-49
2023/04/27 07:17:32;;;;;;;12.10;6.10;;;;;;;11.97;100.00;100312.09;105876;1257;63416;-53
2023/04/27 07:20:05;;;;;;;8.80;6.30;;;;;;;12.16;100.00;100312.84;105911;1257;63052;-52
2023/04/27 07:22:32;;;;;;;14.30;7.30;;;;;;;12.34;100.00;100308.02;105672;1250;366510;-50
2023/04/27 07:26:47;;;;;;;6.90;5.10;;;;;;;12.59;100.00;100334.84;102808;1291;600343;-52
2023/04/27 07:29:16;;;;;;;11.20;5.60;;;;;;;12.67;100.00;100329.22;105132;1264;63675;-53
2023/04/27 07:31:54;;;;;;;8.00;5.90;;;;;;;12.85;100.00;100334.24;105125;1269;61463;-51
2023/04/27 07:34:21;;;;;;;10.50;5.40;;;;;;;13.02;100.00;100337.20;105060;1269;74392;-49
2023/04/27 07:36:49;;;;;;;9.80;5.70;;;;;;;13.16;100.00;100347.87;105027;1270;65530;-51
2023/04/27 07:39:17;;;;;;;14.70;5.70;;;;;;;13.25;100.00;100361.30;104961;1270;208680;-50
2023/04/27 07:41:44;;;;;;;8.10;5.70;;;;;;;13.35;100.00;100374.15;105161;1264;63770;-50
2023/04/27 07:44:11;;;;;;;8.60;5.60;;;;;;;13.47;100.00;100388.38;105215;1267;62705;-51
2023/04/27 07:46:38;;;;;;;10.50;5.50;;;;;;;13.65;100.00;100401.33;105064;1266;74874;-51
2023/04/27 07:49:05;;;;;;;11.10;5.60;;;;;;;13.73;100.00;100413.88;104886;1266;66575;-51
2023/04/27 07:51:33;;;;;;;8.60;5.70;;;;;;;13.74;100.00;100432.58;105207;1267;75086;-52
2023/04/27 07:54:02;;;;;;;11.60;5.50;;;;;;;13.80;100.00;100452.71;105191;1264;64316;-51
2023/04/27 07:56:29;;;;;;;8.10;5.20;;;;;;;13.82;100.00;100458.19;105218;1264;62383;-51
2023/04/27 07:58:56;;;;;;;13.30;6.00;;;;;;;13.79;100.00;100460.02;105200;1267;75294;-51
2023/04/27 08:01:23;;;;;;;9.80;5.90;;;;;;;13.73;100.00;100455.16;105192;1264;67427;-52
2023/04/27 08:03:50;;;;;;;10.50;6.50;;;;;;;13.62;100.00;100437.16;105207;1264;74133;-50
2023/04/27 08:06:18;;;;;;;11.50;6.50;;;;;;;13.40;100.00;100407.12;105184;1267;63104;-52
2023/04/27 08:08:45;;;;;;;6.90;5.70;;;;;;;13.23;100.00;100390.79;105266;1266;62007;-52
2023/04/27 08:11:12;;;;;;;10.40;5.10;;;;;;;13.12;100.00;100374.68;105220;1266;75560;-52
2023/04/27 08:13:40;;;;;;;9.40;5.60;;;;;;;13.06;100.00;100365.48;105207;1267;66313;-53
2023/04/27 08:16:07;;;;;;;16.90;6.00;;;;;;;13.01;100.00;100360.45;105214;1262;74150;-51
2023/04/27 08:18:34;;;;;;;11.50;5.80;;;;;;;12.97;100.00;100360.05;105161;1269;63505;-51
2023/04/27 08:21:01;;;;;;;6.40;5.10;;;;;;;13.05;100.00;100373.32;105126;1264;63029;-51
2023/04/27 08:23:31;;;;;;;9.70;5.30;;;;;;;13.19;100.00;100380.17;105111;1269;75183;-51
2023/04/27 08:25:58;;;;;;;22.80;6.90;;;;;;;13.28;100.00;100384.95;105179;1269;66296;-51
2023/04/27 08:28:25;;;;;;;5.40;4.90;;;;;;;13.29;100.00;100380.23;105142;1268;74799;-51
2023/04/27 08:30:52;;;;;;;13.60;5.10;;;;;;;13.28;100.00;100367.09;105136;1264;63432;-50
2023/04/27 08:33:20;;;;;;;10.90;5.20;;;;;;;13.32;100.00;100357.45;105141;1270;61779;-51
2023/04/27 08:35:47;;;;;;;5.80;4.50;;;;;;;13.37;100.00;100344.27;105115;1268;74787;-51
2023/04/27 08:38:14;;;;;;;13.10;5.10;;;;;;;13.45;100.00;100332.09;105107;1264;66812;-51
2023/04/27 08:40:42;;;;;;;13.20;4.80;;;;;;;13.55;100.00;100319.11;105198;1266;74087;-51
2023/04/27 08:43:10;;;;;;;8.00;4.60;;;;;;;13.69;100.00;100305.84;105201;1264;63445;-51
2023/04/27 08:45:37;;;;;;;9.50;5.20;;;;;;;13.80;100.00;100291.06;105275;1267;62053;-51
2023/04/27 08:48:05;;;;;;;15.00;5.40;;;;;;;13.86;100.00;100262.24;105191;1267;74554;-51
2023/04/27 08:50:32;;;;;;;10.00;5.10;;;;;;;13.89;100.00;100227.45;105220;1267;66886;-52
2023/04/27 08:52:59;;;;;;;9.90;4.80;;;;;;;13.88;100.00;100186.02;105142;1264;73958;-51
2023/04/27 08:55:26;;;;;;;13.00;5.00;;;;;;;13.88;100.00;100164.71;105235;1263;64159;-51
2023/04/27 08:57:55;;;;;;;7.10;4.80;;;;;;;13.87;100.00;100145.12;105191;1268;61789;-50
2023/04/27 09:00:26;;;;;;;8.40;5.50;;;;;;;13.92;100.00;100139.40;105190;1267;74277;-50
2023/04/27 09:02:53;;;;;;;10.10;6.10;;;;;;;13.95;100.00;100122.79;105200;1263;65744;-51
2023/04/27 09:05:21;;;;;;;8.40;5.70;;;;;;;13.96;100.00;100099.20;105233;1267;74099;-52
2023/04/27 09:08:15;;;;;;;11.80;5.60;;;;;;;13.95;100.00;100085.86;105215;1267;63389;-51
2023/04/27 09:10:49;;;;;;;13.80;5.20;;;;;;;14.00;100.00;100094.53;105179;1264;62583;-52
2023/04/27 09:13:17;;;;;;;6.50;4.30;;;;;;;14.03;100.00;100072.56;105197;1266;75407;-54
2023/04/27 09:15:49;;;;;;;7.40;4.80;;;;;;;14.06;100.00;100042.92;105256;1264;66245;-52
2023/04/27 09:18:20;;;;;;;7.70;4.50;;;;;;;14.09;100.00;99995.11;105239;1263;75518;-53
2023/04/27 09:20:51;;;;;;;7.70;5.00;;;;;;;14.17;100.00;99957.15;105204;1264;63175;-55
2023/04/27 09:23:26;;;;;;;9.40;4.50;;;;;;;14.26;100.00;99922.91;105226;1267;60843;-53
2023/04/27 09:25:55;;;;;;;6.80;4.20;;;;;;;14.43;100.00;99889.40;105206;1266;74682;-51
2023/04/27 09:28:26;;;;;;;5.80;4.00;;;;;;;14.62;100.00;99842.75;105232;1266;66700;-51
2023/04/27 09:30:55;;;;;;;7.70;3.90;;;;;;;14.81;100.00;99769.50;105205;1263;75220;-51
2023/04/27 09:33:33;;;;;;;9.50;4.30;;;;;;;15.00;100.00;99707.96;105216;1264;61826;-52
2023/04/27 09:36:05;;;;;;;5.50;3.60;;;;;;;15.15;100.00;99624.34;105235;1267;61890;-51
2023/04/27 09:38:32;;;;;;;3.30;2.90;;;;;;;15.25;100.00;99570.17;105509;1257;73388;-51
2023/04/27 09:40:59;;;;;;;5.60;3.40;;;;;;;15.34;100.00;99555.64;105579;1257;67237;-52
2023/04/27 09:43:28;;;;;;;6.60;3.50;;;;;;;15.44;100.00;99554.94;105614;1258;75389;-52
2023/04/27 09:45:55;;;;;;;6.60;2.70;;;;;;;15.52;100.00;99569.45;105601;1257;62595;-52
2023/04/27 09:48:23;;;;;;;4.60;3.20;;;;;;;15.64;100.00;99572.14;105622;1260;61617;-52
2023/04/27 09:50:50;;;;;;;7.20;3.40;;;;;;;15.84;100.00;99574.90;105556;1262;75320;-52
2023/04/27 09:53:23;;;;;;;5.20;3.10;;;;;;;15.99;100.00;99604.73;105734;1260;65294;-52
2023/04/27 09:55:53;;;;;;;14.30;3.90;;;;;;;16.06;100.00;99634.62;105725;1254;74177;-52
2023/04/27 09:58:32;;;;;;;8.40;3.70;;;;;;;16.20;100.00;99649.02;105630;1253;63405;-51
2023/04/27 10:01:32;;;;;;;5.60;3.60;;;;;;;16.35;100.00;99679.55;105687;1260;61790;-52
2023/04/27 10:04:15;;;;;;;12.20;4.10;;;;;;;16.50;100.00;99717.02;105622;1254;74569;-52
2023/04/27 10:07:14;;;;;;;9.00;4.10;;;;;;;16.58;100.00;99732.25;105736;1260;66101;-53
2023/04/27 10:09:45;;;;;;;11.70;4.70;;;;;;;16.65;100.00;99757.80;105685;1259;75208;-53
2023/04/27 10:12:25;;;;;;;8.20;4.60;;;;;;;16.69;100.00;99779.24;105743;1254;62891;-53
2023/04/27 10:14:54;;;;;;;8.10;4.70;;;;;;;16.72;100.00;99787.08;105890;1253;61623;-53
2023/04/27 10:17:32;;;;;;;11.70;4.80;;;;;;;16.77;100.00;99786.09;105720;1254;75220;-53
2023/04/27 10:20:04;;;;;;;8.80;4.60;;;;;;;16.82;100.00;99793.34;105730;1259;67172;-53
2023/04/27 10:22:49;;;;;;;5.60;4.20;;;;;;;16.86;100.00;99798.02;105725;1259;74870;-53
2023/04/27 10:25:18;;;;;;;5.80;4.10;;;;;;;16.99;100.00;99797.11;105694;1254;63053;-51
2023/04/27 10:27:57;;;;;;;4.90;3.80;;;;;;;17.13;100.00;99815.67;105697;1259;61749;-53
2023/04/27 10:30:26;;;;;;;7.80;4.00;;;;;;;17.26;100.00;99821.29;105730;1254;74410;-53
2023/04/27 10:32:54;;;;;;;10.40;4.50;;;;;;;17.37;100.00;99819.44;105641;1260;66522;-54
2023/04/27 10:35:43;;;;;;;4.20;3.60;;;;;;;17.55;100.00;99826.98;105706;1254;75030;-54
2023/04/27 10:38:25;;;;;;;6.80;3.60;;;;;;;17.76;100.00;99847.55;105585;1254;61823;-54
2023/04/27 10:40:57;;;;;;;5.60;4.10;;;;;;;17.86;100.00;99869.86;105439;1254;61353;-53
2023/04/27 10:43:26;;;;;;;8.60;4.40;;;;;;;17.90;100.00;99867.75;105747;1260;75313;-54
2023/04/27 10:45:53;;;;;;;6.30;4.00;;;;;;;17.93;100.00;99864.02;105716;1258;67070;-53
2023/04/27 10:48:21;;;;;;;8.30;3.90;;;;;;;17.98;100.00;99862.69;105629;1254;74431;-52
2023/04/27 10:50:50;;;;;;;8.90;4.80;;;;;;;18.05;100.00;99865.84;105694;1259;61577;-54
2023/04/27 10:53:18;;;;;;;8.20;4.40;;;;;;;18.15;100.00;99867.15;105711;1260;62647;-53
2023/04/27 10:55:45;;;;;;;11.90;4.20;;;;;;;18.19;100.00;99864.44;105694;1259;74827;-53
2023/04/27 10:58:13;;;;;;;8.50;5.00;;;;;;;18.23;100.00;99858.10;105656;1256;66525;-55
2023/04/27 11:00:42;;;;;;;10.70;5.40;;;;;;;18.17;100.00;99863.54;105734;1259;74105;-53
2023/04/27 11:03:15;;;;;;;11.40;4.80;;;;;;;17.96;100.00;99873.30;105678;1254;63831;-53
2023/04/27 11:05:44;;;;;;;8.20;4.60;;;;;;;17.76;100.00;99862.41;105687;1260;62151;-52
2023/04/27 11:08:15;;;;;;;10.90;5.10;;;;;;;17.62;100.00;99857.77;105700;1259;74416;-53
2023/04/27 11:10:43;;;;;;;9.00;5.40;;;;;;;17.56;100.00;99848.20;105682;1259;67410;-53
2023/04/27 11:13:15;;;;;;;11.80;5.00;;;;;;;17.58;100.00;99835.70;105831;1254;73041;-52
2023/04/27 11:15:48;;;;;;;11.10;5.60;;;;;;;17.63;100.00;99830.84;105733;1257;62712;-52